Time;durP1;ratioP1;P1;durP2;ratioP2;P2;SDS_P1;SDS_P2;PMS_P1;PMS_P2;Temp;Humidity;BMP_temperature;BMP_pressure;BME280_temperature;BME280_humidity;BME280_pressure;Samples;Min_cycle;Max_cycle;Signal;HPM_P1;HPM_P2
2023/01/09 00:03:11;;;;;;;47.40;23.92;;;;;;;5.22;100.00;99477.10;5205368;55;1140803;-70
2023/01/09 00:08:17;;;;;;;50.60;28.33;;;;;;;5.21;100.00;99469.34;5184880;55;1140855;-69
2023/01/09 00:13:23;;;;;;;48.00;25.57;;;;;;;5.16;100.00;99481.50;5160515;55;1138675;-68
2023/01/09 00:18:28;;;;;;;46.68;23.57;;;;;;;5.17;100.00;99474.00;5101144;55;1138867;-73
2023/01/09 00:23:34;;;;;;;48.87;24.90;;;;;;;5.18;100.00;99460.42;5151162;55;1141236;-70
2023/01/09 00:28:41;;;;;;;47.60;23.57;;;;;;;5.17;100.00;99465.30;5131276;55;1140833;-73
2023/01/09 00:33:59;;;;;;;51.13;25.17;;;;;;;5.20;100.00;99471.12;5131383;55;1140866;-75
2023/01/09 00:39:06;;;;;;;51.68;27.15;;;;;;;5.26;100.00;99469.86;5151436;55;1140739;-76
2023/01/09 00:44:31;;;;;;;47.67;25.50;;;;;;;5.27;100.00;99460.58;5131676;55;1138730;-69
2023/01/09 00:49:38;;;;;;;49.97;25.00;;;;;;;5.25;100.00;99454.61;5117030;55;1140869;-67
2023/01/09 00:54:45;;;;;;;47.60;24.40;;;;;;;5.25;100.00;99455.91;5131428;55;1140781;-74
2023/01/09 00:59:52;;;;;;;49.30;23.63;;;;;;;5.23;100.00;99449.95;5118668;55;1140783;-66
2023/01/09 01:10:25;;;;;;;50.75;25.80;;;;;;;5.25;100.00;99457.23;5046713;56;1140939;-72
2023/01/09 01:15:31;;;;;;;50.83;24.87;;;;;;;5.20;100.00;99437.05;5047104;56;1138910;-73
2023/01/09 01:20:41;;;;;;;42.63;23.67;;;;;;;5.20;100.00;99437.05;5066287;56;1140917;-73
2023/01/09 01:25:48;;;;;;;45.50;23.80;;;;;;;5.20;100.00;99441.45;5046910;56;1140807;-72
2023/01/09 01:30:53;;;;;;;51.47;25.87;;;;;;;5.21;100.00;99432.18;5047222;56;1140898;-73
2023/01/09 01:36:08;;;;;;;47.30;25.43;;;;;;;5.19;100.00;99435.41;5061684;56;1140873;-70
2023/01/09 01:41:28;;;;;;;51.50;24.98;;;;;;;5.10;100.00;99432.13;5030869;56;1260063;-66
2023/01/09 01:46:22;;;;;;;48.40;24.20;;;;;;;5.08;100.00;99435.33;5076563;56;1138728;-71
2023/01/09 01:51:32;;;;;;;47.83;24.30;;;;;;;5.06;100.00;99435.91;5100382;56;1140911;-67
2023/01/09 01:56:42;;;;;;;46.63;24.77;;;;;;;5.08;100.00;99434.02;5120155;56;1140929;-71
2023/01/09 02:01:52;;;;;;;54.43;25.43;;;;;;;5.05;100.00;99425.53;5094157;56;1140664;-80
2023/01/09 02:07:02;;;;;;;45.15;23.73;;;;;;;5.01;100.00;99408.38;5116354;56;1138666;-73
2023/01/09 02:12:26;;;;;;;49.42;24.65;;;;;;;4.98;100.00;99407.29;5120285;56;1138779;-74
2023/01/09 02:18:05;;;;;;;47.35;25.40;;;;;;;5.00;100.00;99402.78;5100133;56;1140696;-72
2023/01/09 02:23:39;;;;;;;50.47;26.50;;;;;;;4.97;100.00;99396.45;5100222;56;1140838;-74
2023/01/09 02:29:13;;;;;;;56.88;26.85;;;;;;;4.87;100.00;99386.64;5096772;56;1138868;-77
2023/01/09 02:34:43;;;;;;;52.67;25.32;;;;;;;4.79;100.00;99378.48;5062811;55;1139224;-72
2023/01/09 02:40:08;;;;;;;46.27;24.67;;;;;;;4.78;100.00;99370.73;5111843;55;1138914;-73
2023/01/09 02:45:15;;;;;;;47.13;23.32;;;;;;;4.79;100.00;99369.79;5080370;56;1141227;-70
2023/01/09 02:50:34;;;;;;;44.77;23.30;;;;;;;4.76;100.00;99359.52;5053008;56;1141074;-76
2023/01/09 02:56:07;;;;;;;47.67;22.47;;;;;;;4.75;100.00;99359.16;5075500;56;1141065;-72
2023/01/09 03:01:23;;;;;;;46.60;23.40;;;;;;;4.74;100.00;99358.80;5065821;55;1140895;-71
2023/01/09 03:06:45;;;;;;;53.40;25.87;;;;;;;4.75;100.00;99363.92;5098856;55;1140914;-71
2023/01/09 03:12:01;;;;;;;53.50;25.97;;;;;;;4.78;100.00;99367.64;5099377;55;1138913;-70
2023/01/09 03:17:12;;;;;;;53.52;26.80;;;;;;;4.80;100.00;99364.91;5119295;55;1138737;-72
2023/01/09 03:22:17;;;;;;;52.40;24.75;;;;;;;4.78;100.00;99370.73;5099340;55;1138624;-71
2023/01/09 03:27:23;;;;;;;42.87;22.53;;;;;;;4.76;100.00;99368.69;5099308;55;1138882;-67
2023/01/09 03:32:29;;;;;;;48.03;23.47;;;;;;;4.73;100.00;99363.23;5098762;55;1141043;-68
2023/01/09 03:37:35;;;;;;;49.20;25.17;;;;;;;4.64;100.00;99354.70;4958552;57;1140752;-73
2023/01/09 03:42:41;;;;;;;50.17;25.23;;;;;;;4.52;100.00;99347.73;4960611;56;1138877;-72
2023/01/09 03:47:47;;;;;;;50.83;24.70;;;;;;;4.45;100.00;99356.48;5123367;55;1138736;-78
2023/01/09 03:52:53;;;;;;;46.60;24.10;;;;;;;4.40;100.00;99346.83;5109723;55;1138900;-73
2023/01/09 03:57:59;;;;;;;48.30;23.80;;;;;;;4.32;100.00;99333.44;5098517;56;1140758;-72
2023/01/09 04:03:07;;;;;;;52.70;26.93;;;;;;;4.30;100.00;99322.23;5118591;56;1140774;-73
2023/01/09 04:08:14;;;;;;;56.45;26.35;;;;;;;4.29;100.00;99317.94;5098814;56;1138761;-69
2023/01/09 04:13:20;;;;;;;70.73;27.20;;;;;;;4.30;100.00;99325.32;5098156;56;1138909;-70
2023/01/09 04:18:26;;;;;;;55.27;26.17;;;;;;;4.24;100.00;99327.45;5098774;56;1138865;-72
2023/01/09 04:23:32;;;;;;;47.87;23.27;;;;;;;4.20;100.00;99336.92;5118404;56;1140735;-70
2023/01/09 04:28:38;;;;;;;58.50;28.97;;;;;;;4.17;100.00;99331.89;5126098;55;1140895;-72
2023/01/09 04:33:45;;;;;;;70.53;29.87;;;;;;;4.14;100.00;99335.56;5071136;55;1138722;-66
2023/01/09 04:38:51;;;;;;;59.50;27.97;;;;;;;4.07;100.00;99327.79;5028561;56;1138831;-70
2023/01/09 04:43:57;;;;;;;48.17;25.20;;;;;;;4.02;100.00;99336.89;5047396;56;1138943;-72
2023/01/09 04:49:03;;;;;;;54.57;26.27;;;;;;;3.98;100.00;99330.19;5097918;55;1138977;-74
2023/01/09 04:54:09;;;;;;;57.03;27.58;;;;;;;3.91;100.00;99329.80;5142475;55;1138633;-72
2023/01/09 04:59:15;;;;;;;54.18;28.05;;;;;;;3.93;100.00;99326.61;5122087;55;1140880;-74
2023/01/09 05:04:21;;;;;;;57.93;28.97;;;;;;;3.93;100.00;99323.16;5074544;56;1140776;-71
2023/01/09 05:09:26;;;;;;;59.77;30.37;;;;;;;3.85;100.00;99310.59;5041063;55;1138870;-72
2023/01/09 05:14:32;;;;;;;57.13;29.77;;;;;;;3.73;100.00;99306.22;5057752;55;1138790;-69
2023/01/09 05:19:38;;;;;;;68.63;35.53;;;;;;;3.63;100.00;99294.26;5045700;55;1138797;-74
2023/01/09 05:24:43;;;;;;;70.97;36.50;;;;;;;3.59;100.00;99282.80;5065564;55;1140998;-74
2023/01/09 05:29:49;;;;;;;69.30;34.33;;;;;;;3.56;100.00;99269.93;5030450;56;1140782;-73
2023/01/09 05:34:56;;;;;;;77.97;36.70;;;;;;;3.53;100.00;99265.75;4978034;56;1138788;-72
2023/01/09 05:40:03;;;;;;;65.03;31.62;;;;;;;3.44;100.00;99253.32;5009210;56;1138739;-72
2023/01/09 05:45:10;;;;;;;58.95;32.98;;;;;;;3.35;100.00;99246.96;5053601;56;1138954;-74
2023/01/09 05:50:16;;;;;;;61.70;31.20;;;;;;;3.30;100.00;99246.89;4999573;56;1138855;-74
2023/01/09 05:55:22;;;;;;;64.03;31.82;;;;;;;3.28;100.00;99243.08;4955788;56;1140977;-73
2023/01/09 06:00:27;;;;;;;65.43;35.50;;;;;;;3.26;100.00;99237.58;4974939;57;1138657;-72
2023/01/09 06:05:33;;;;;;;59.97;30.57;;;;;;;3.25;100.00;99231.52;4955586;57;1138633;-67
2023/01/09 06:10:39;;;;;;;61.60;31.63;;;;;;;3.18;100.00;99232.42;4955731;57;1138624;-73
2023/01/09 06:15:46;;;;;;;72.20;32.13;;;;;;;3.18;100.00;99226.36;5020091;56;1140949;-73
2023/01/09 06:20:52;;;;;;;58.23;30.40;;;;;;;3.16;100.00;99229.08;5037104;55;1140894;-71
2023/01/09 06:25:58;;;;;;;68.60;34.97;;;;;;;3.13;100.00;99225.36;5009084;56;1138660;-74
2023/01/09 06:31:04;;;;;;;68.92;31.93;;;;;;;3.07;100.00;99216.62;4997927;57;1138790;-74
2023/01/09 06:36:10;;;;;;;67.17;31.07;;;;;;;3.06;100.00;99228.00;5040206;56;1138816;-67
2023/01/09 06:41:16;;;;;;;59.73;30.00;;;;;;;3.06;100.00;99224.55;4964042;57;1140872;-69
2023/01/09 06:46:22;;;;;;;66.15;34.88;;;;;;;3.05;100.00;99229.44;5075386;56;1138835;-75
2023/01/09 06:51:28;;;;;;;58.47;31.60;;;;;;;3.01;100.00;99234.50;5141530;56;1138860;-71
2023/01/09 06:56:33;;;;;;;65.00;31.73;;;;;;;2.97;100.00;99232.55;5121269;56;1138971;-73
2023/01/09 07:01:39;;;;;;;69.60;34.23;;;;;;;2.95;100.00;99233.59;5121269;56;1138861;-79
2023/01/09 07:06:49;;;;;;;74.00;36.27;;;;;;;2.96;100.00;99223.05;5141520;56;1140897;-68
2023/01/09 07:11:55;;;;;;;68.93;36.07;;;;;;;2.97;100.00;99212.97;5121793;55;1138778;-74
2023/01/09 07:17:01;;;;;;;72.00;37.93;;;;;;;2.93;100.00;99215.87;5126032;56;1138753;-74
2023/01/09 07:22:08;;;;;;;71.73;37.50;;;;;;;2.84;100.00;99216.03;5149570;56;1138765;-75
2023/01/09 07:27:14;;;;;;;70.90;34.75;;;;;;;2.82;100.00;99208.30;5078536;56;1138713;-72
2023/01/09 07:32:20;;;;;;;70.35;38.30;;;;;;;2.83;100.00;99216.50;5059963;56;1140992;-73
2023/01/09 07:37:26;;;;;;;75.22;39.40;;;;;;;2.82;100.00;99221.83;5105065;56;1138835;-68
2023/01/09 07:42:32;;;;;;;82.77;42.40;;;;;;;2.80;100.00;99219.78;4992429;57;1138836;-72
2023/01/09 07:47:40;;;;;;;81.73;42.83;;;;;;;2.77;100.00;99222.13;4878770;59;1138826;-71
2023/01/09 07:52:48;;;;;;;81.43;43.70;;;;;;;2.78;100.00;99211.20;4962020;58;1138766;-74
2023/01/09 07:57:53;;;;;;;86.40;45.63;;;;;;;2.80;100.00;99222.39;5061971;56;1140895;-71
2023/01/09 08:02:59;;;;;;;98.57;49.33;;;;;;;2.79;100.00;99214.19;5042620;56;1138823;-75
2023/01/09 08:08:06;;;;;;;90.60;44.25;;;;;;;2.79;100.00;99198.52;5056302;56;1138801;-71
2023/01/09 08:13:12;;;;;;;86.05;44.27;;;;;;;2.79;100.00;99199.36;5048021;57;1138755;-67
2023/01/09 08:18:17;;;;;;;86.55;42.95;;;;;;;2.80;100.00;99189.29;5042889;56;1138663;-69
2023/01/09 08:23:23;;;;;;;85.40;43.50;;;;;;;2.83;100.00;99193.00;5042839;57;1141060;-75
2023/01/09 08:28:29;;;;;;;92.70;45.73;;;;;;;2.89;100.00;99194.38;5062709;56;1138733;-78
2023/01/09 08:33:34;;;;;;;85.43;43.97;;;;;;;2.89;100.00;99185.23;5078880;56;1138816;-73
2023/01/09 08:38:40;;;;;;;88.73;43.97;;;;;;;2.93;100.00;99187.16;5126537;56;1138941;-72
2023/01/09 08:49:08;;;;;;;;;;;;;;;3.04;100.00;99185.98;5130687;56;1140812;-76
2023/01/09 08:54:14;;;;;;;78.47;40.33;;;;;;;3.12;100.00;99177.97;5061727;57;971865;-69
2023/01/09 08:59:20;;;;;;;89.23;44.27;;;;;;;3.13;100.00;99167.89;5033174;57;1136712;-75
2023/01/09 09:04:26;;;;;;;83.20;40.53;;;;;;;3.18;100.00;99173.64;4977745;57;1138854;-77
2023/01/09 09:09:31;;;;;;;79.13;42.10;;;;;;;3.23;100.00;99169.86;5039755;57;1140976;-75
2023/01/09 09:20:01;;;;;;;92.97;51.20;;;;;;;3.36;100.00;99170.70;4902271;58;1138800;-71
2023/01/09 09:25:07;;;;;;;88.70;45.83;;;;;;;3.35;100.00;99169.87;4985694;57;1138654;-70
2023/01/09 09:30:14;;;;;;;90.07;44.23;;;;;;;3.35;100.00;99166.42;5039993;57;1138770;-74
2023/01/09 09:35:22;;;;;;;82.03;41.47;;;;;;;3.39;100.00;99160.02;4971110;56;1140997;-74
2023/01/09 09:41:03;;;;;;;92.20;46.53;;;;;;;3.45;100.00;99155.68;4893913;58;1141114;-70
2023/01/09 09:46:47;;;;;;;83.40;41.87;;;;;;;3.48;100.00;99151.08;5016026;57;1138880;-71
2023/01/09 09:52:40;;;;;;;92.07;42.83;;;;;;;3.52;100.00;99155.59;4990973;57;1138822;-69
2023/01/09 09:57:51;;;;;;;77.72;38.88;;;;;;;3.53;100.00;99145.50;5032763;57;1140950;-69
2023/01/09 10:03:08;;;;;;;83.43;40.93;;;;;;;3.62;100.00;99144.03;5032580;57;1140756;-72
2023/01/09 10:08:47;;;;;;;83.03;43.95;;;;;;;3.71;100.00;99139.45;4894112;59;1140808;-70
2023/01/09 10:14:04;;;;;;;82.40;43.17;;;;;;;3.77;100.00;99129.88;4875673;59;1138707;-68
2023/01/09 10:19:47;;;;;;;81.40;40.60;;;;;;;3.74;100.00;99151.00;4875915;59;1138754;-74
2023/01/09 10:25:06;;;;;;;76.03;37.97;;;;;;;3.73;100.00;99148.02;4874938;59;1141063;-72
2023/01/09 10:30:23;;;;;;;83.40;44.35;;;;;;;3.74;100.00;99151.00;4878455;58;1140841;-77
2023/01/09 10:35:58;;;;;;;111.27;51.30;;;;;;;3.72;100.00;99143.27;4903375;58;1138818;-77
2023/01/09 10:41:09;;;;;;;93.10;47.77;;;;;;;3.66;100.00;99142.88;5032666;57;1141054;-68
2023/01/09 10:46:22;;;;;;;80.87;41.65;;;;;;;3.63;100.00;99144.41;5057997;57;1141047;-68
2023/01/09 10:51:41;;;;;;;85.10;45.70;;;;;;;3.67;100.00;99147.98;4963008;57;1140854;-72
2023/01/09 10:57:00;;;;;;;89.43;45.20;;;;;;;3.73;100.00;99150.64;4880801;58;1138673;-72
2023/01/09 11:02:08;;;;;;;79.90;39.50;;;;;;;3.71;100.00;99145.52;4922498;58;1139052;-72
2023/01/09 11:07:27;;;;;;;87.90;42.53;;;;;;;3.68;100.00;99134.43;5051427;56;1138712;-78
2023/01/09 11:12:35;;;;;;;123.37;68.97;;;;;;;3.73;100.00;99126.63;5041554;57;1140796;-72
2023/01/09 11:17:40;;;;;;;69.17;37.43;;;;;;;3.82;100.00;99123.81;5041552;56;1142848;-67
2023/01/09 11:22:52;;;;;;;74.43;37.93;;;;;;;3.90;100.00;99121.50;5061565;56;1140964;-77
2023/01/09 11:28:07;;;;;;;87.50;46.03;;;;;;;3.89;100.00;99116.73;5054792;56;1138928;-73
2023/01/09 11:33:18;;;;;;;119.67;60.70;;;;;;;3.87;100.00;99113.40;5108762;56;1138780;-73
2023/01/09 11:38:23;;;;;;;114.55;55.85;;;;;;;3.92;100.00;99113.07;5124707;56;1140887;-74
2023/01/09 11:43:38;;;;;;;120.90;49.30;;;;;;;3.99;100.00;99113.44;5147020;56;1142857;-72
2023/01/09 11:49:01;;;;;;;107.23;46.77;;;;;;;4.04;100.00;99112.17;5126434;56;1143085;-72
2023/01/09 11:54:24;;;;;;;73.37;38.70;;;;;;;4.17;100.00;99118.64;5043323;56;1143094;-65
2023/01/09 11:59:32;;;;;;;138.72;72.15;;;;;;;4.20;100.00;99115.33;5042547;57;1140982;-69
2023/01/09 12:04:50;;;;;;;144.33;73.27;;;;;;;4.20;100.00;99113.19;5099806;56;1140905;-72
2023/01/09 12:10:24;;;;;;;87.60;47.67;;;;;;;4.22;100.00;99107.38;5120368;56;1140830;-70
2023/01/09 12:15:59;;;;;;;70.17;38.33;;;;;;;4.24;100.00;99102.39;5073565;56;1140910;-69
2023/01/09 12:21:41;;;;;;;84.40;45.03;;;;;;;4.25;100.00;99092.76;5056719;56;1140835;-69
2023/01/09 12:27:11;;;;;;;85.23;43.10;;;;;;;4.34;100.00;99092.53;5102152;56;1140977;-72
2023/01/09 12:32:27;;;;;;;67.00;38.16;;;;;;;4.41;100.00;99085.43;5111190;56;1141067;-72
2023/01/09 12:38:02;;;;;;;78.03;37.83;;;;;;;4.48;100.00;99072.22;5056650;55;1140915;-67
2023/01/09 12:43:38;;;;;;;66.67;35.93;;;;;;;4.53;100.00;99074.50;5039027;55;1141016;-69
2023/01/09 12:49:10;;;;;;;86.20;43.53;;;;;;;4.62;100.00;99076.88;5105236;56;1140932;-68
2023/01/09 12:54:42;;;;;;;102.87;48.10;;;;;;;4.60;100.00;99076.52;5037034;57;1140947;-69
2023/01/09 12:59:52;;;;;;;85.63;43.80;;;;;;;4.55;100.00;99073.44;5120461;56;1140995;-67
2023/01/09 13:05:16;;;;;;;86.10;39.17;;;;;;;4.55;100.00;99068.68;5087526;56;1138664;-77
2023/01/09 13:10:35;;;;;;;92.65;42.80;;;;;;;4.57;100.00;99062.38;5044438;56;1141514;-71
2023/01/09 13:15:47;;;;;;;66.60;34.93;;;;;;;4.64;100.00;99057.49;5002953;57;1140939;-70
2023/01/09 13:20:57;;;;;;;79.37;41.33;;;;;;;4.67;100.00;99052.03;4980570;57;1140787;-73
2023/01/09 13:26:21;;;;;;;79.03;42.73;;;;;;;4.64;100.00;99048.80;5024232;57;1140888;-69
2023/01/09 13:31:32;;;;;;;;;;;;;;;4.66;100.00;99049.05;5030885;56;1138823;-70
2023/01/09 13:36:46;;;;;;;82.93;40.33;;;;;;;4.73;100.00;99063.83;4964373;57;973979;-70
2023/01/09 13:47:28;;;;;;;69.90;37.83;;;;;;;4.72;100.00;99072.16;4885545;58;1140931;-68
2023/01/09 13:52:42;;;;;;;71.62;38.88;;;;;;;4.72;100.00;99086.56;4883586;59;1140780;-71
2023/01/09 13:58:13;;;;;;;68.17;37.10;;;;;;;4.74;100.00;99095.58;4902679;59;1140986;-74
2023/01/09 14:03:31;;;;;;;73.23;39.03;;;;;;;4.70;100.00;99102.86;4883792;59;1141204;-69
2023/01/09 14:08:35;;;;;;;120.05;52.43;;;;;;;4.69;100.00;99109.05;4880129;58;1140990;-78
2023/01/09 14:13:46;;;;;;;67.17;35.63;;;;;;;4.68;100.00;99110.47;4928588;58;1142896;-75
2023/01/09 14:19:04;;;;;;;70.97;39.53;;;;;;;4.70;100.00;99112.50;4883491;58;1140730;-74
2023/01/09 14:24:14;;;;;;;602.80;184.43;;;;;;;4.76;100.00;99116.78;4883489;58;1140728;-66
2023/01/09 14:29:40;;;;;;;241.75;79.45;;;;;;;4.84;100.00;99124.91;4883468;58;1145054;-72
2023/01/09 14:34:53;;;;;;;81.50;42.83;;;;;;;4.84;100.00;99135.39;4955701;58;1140936;-68
2023/01/09 14:40:00;;;;;;;81.17;41.47;;;;;;;4.75;100.00;99150.47;4945782;57;1138955;-73
2023/01/09 14:45:15;;;;;;;79.80;40.37;;;;;;;4.67;100.00;99150.23;4923117;57;1140834;-76
2023/01/09 14:50:37;;;;;;;106.30;49.83;;;;;;;4.63;100.00;99173.66;4960524;57;1140949;-76
2023/01/09 14:55:56;;;;;;;131.50;57.93;;;;;;;4.61;100.00;99175.55;4903005;59;1142914;-71
2023/01/09 15:01:15;;;;;;;77.93;38.43;;;;;;;4.56;100.00;99178.53;4883098;58;1142916;-71
2023/01/09 15:06:24;;;;;;;87.62;39.67;;;;;;;4.57;100.00;99187.22;4898417;58;1141034;-72
2023/01/09 15:11:31;;;;;;;154.90;62.00;;;;;;;4.54;100.00;99183.52;5074094;56;1141151;-67
2023/01/09 15:16:37;;;;;;;115.73;56.23;;;;;;;4.56;100.00;99192.94;5147230;56;1142982;-72
2023/01/09 15:21:47;;;;;;;101.70;61.83;;;;;;;4.64;100.00;99195.44;5127053;56;1142918;-75
2023/01/09 15:26:57;;;;;;;92.50;58.23;;;;;;;4.65;100.00;99201.04;5111138;56;1143088;-73
2023/01/09 15:32:13;;;;;;;125.20;59.40;;;;;;;4.65;100.00;99219.38;5136740;56;1140829;-69
2023/01/09 15:37:34;;;;;;;142.33;64.53;;;;;;;4.61;100.00;99225.30;5037056;57;1140944;-72
2023/01/09 15:42:56;;;;;;;144.83;56.00;;;;;;;4.58;100.00;99233.41;5043303;56;1140772;-72
2023/01/09 15:48:26;;;;;;;84.20;45.03;;;;;;;4.56;100.00;99242.68;5127768;56;1140725;-69
2023/01/09 15:53:32;;;;;;;67.23;30.53;;;;;;;4.57;100.00;99252.68;5127529;56;1140938;-69
2023/01/09 15:58:45;;;;;;;73.07;35.10;;;;;;;4.55;100.00;99255.41;5147134;56;1140921;-74
2023/01/09 16:03:48;;;;;;;63.07;32.70;;;;;;;4.55;100.00;99252.79;5126844;56;1140912;-71
2023/01/09 16:08:57;;;;;;;61.57;33.00;;;;;;;4.57;100.00;99260.06;5108859;56;1141242;-74
2023/01/09 16:14:26;;;;;;;76.80;37.43;;;;;;;4.57;100.00;99268.39;5071738;56;1140935;-68
2023/01/09 16:19:54;;;;;;;74.10;37.67;;;;;;;4.56;100.00;99272.79;5042681;57;1140878;-74
2023/01/09 16:25:04;;;;;;;76.20;43.47;;;;;;;4.58;100.00;99268.25;5047073;56;1140833;-73
2023/01/09 16:30:24;;;;;;;73.83;36.70;;;;;;;4.59;100.00;99284.80;5048178;57;1140985;-70
2023/01/09 16:35:29;;;;;;;61.42;33.55;;;;;;;4.58;100.00;99278.72;5126337;56;1140932;-70
2023/01/09 16:40:35;;;;;;;64.03;33.90;;;;;;;4.60;100.00;99280.77;5044218;56;1141020;-71
2023/01/09 16:45:43;;;;;;;68.00;30.93;;;;;;;4.65;100.00;99269.13;5080270;56;1140990;-70
2023/01/09 16:50:49;;;;;;;61.20;31.40;;;;;;;4.68;100.00;99292.00;5042637;56;1140768;-72
2023/01/09 16:55:55;;;;;;;71.03;39.87;;;;;;;4.71;100.00;99298.80;5042409;56;1140730;-66
2023/01/09 17:01:01;;;;;;;62.73;34.30;;;;;;;4.73;100.00;99301.68;5084332;56;1140955;-74
2023/01/09 17:06:07;;;;;;;52.70;28.10;;;;;;;4.77;100.00;99306.20;5127143;56;1140947;-73
2023/01/09 17:11:19;;;;;;;53.17;28.10;;;;;;;4.79;100.00;99305.61;5124725;56;1140858;-72
2023/01/09 17:16:25;;;;;;;42.98;27.02;;;;;;;4.83;100.00;99314.92;5122449;56;1141003;-71
2023/01/09 17:21:32;;;;;;;45.40;24.23;;;;;;;4.88;100.00;99333.30;5141275;56;1141210;-66
2023/01/09 17:32:04;;;;;;;44.20;24.33;;;;;;;4.95;100.00;99329.27;5092214;56;1140756;-72
2023/01/09 17:37:14;;;;;;;37.67;21.20;;;;;;;5.00;100.00;99330.25;5056380;56;1140945;-70
2023/01/09 17:42:20;;;;;;;39.63;21.53;;;;;;;5.02;100.00;99334.07;5035855;56;1140922;-74
2023/01/09 17:47:26;;;;;;;47.50;22.07;;;;;;;5.04;100.00;99338.22;5117625;56;1140920;-70
2023/01/09 17:52:32;;;;;;;46.60;23.83;;;;;;;5.07;100.00;99341.94;5140914;56;1140889;-70
2023/01/09 17:57:38;;;;;;;36.23;20.23;;;;;;;5.11;100.00;99353.03;5111067;56;1140769;-71
2023/01/09 18:02:43;;;;;;;27.13;15.73;;;;;;;5.12;100.00;99351.61;5038096;56;1140688;-66
2023/01/09 18:07:49;;;;;;;40.63;21.47;;;;;;;5.16;100.00;99370.58;5057336;56;1141009;-71
2023/01/09 18:12:57;;;;;;;36.10;18.00;;;;;;;5.19;100.00;99388.70;5039397;56;1141033;-66
2023/01/09 18:18:02;;;;;;;33.03;16.87;;;;;;;5.19;100.00;99394.78;5043476;56;1140980;-71
2023/01/09 18:23:09;;;;;;;30.93;18.70;;;;;;;5.21;100.00;99397.27;5063160;56;1140808;-69
2023/01/09 18:28:17;;;;;;;26.10;16.50;;;;;;;5.21;100.00;99398.10;5043191;56;1140761;-74
2023/01/09 18:33:22;;;;;;;28.47;17.95;;;;;;;5.25;100.00;99394.79;5076276;56;1138729;-68
2023/01/09 18:38:28;;;;;;;28.35;16.42;;;;;;;5.26;100.00;99404.33;4961685;57;1140902;-72
2023/01/09 18:43:34;;;;;;;31.10;15.10;;;;;;;5.27;100.00;99406.84;5147446;56;1140918;-69
2023/01/09 18:48:39;;;;;;;29.23;17.47;;;;;;;5.30;100.00;99403.16;5089686;56;1140837;-72
2023/01/09 18:53:45;;;;;;;23.93;15.47;;;;;;;5.33;100.00;99407.34;5043037;56;1140960;-76
2023/01/09 18:58:56;;;;;;;30.63;17.00;;;;;;;5.34;100.00;99422.13;5062950;56;1138802;-68
2023/01/09 19:04:02;;;;;;;22.30;14.60;;;;;;;5.33;100.00;99416.05;5043136;56;1140758;-69
2023/01/09 19:09:08;;;;;;;20.70;12.93;;;;;;;5.35;100.00;99429.86;5043173;56;1140873;-74
2023/01/09 19:14:14;;;;;;;23.80;13.70;;;;;;;5.36;100.00;99430.69;5100095;56;1140957;-74
2023/01/09 19:19:20;;;;;;;28.73;15.37;;;;;;;5.37;100.00;99433.67;5075317;56;1141058;-73
2023/01/09 19:24:26;;;;;;;23.35;14.03;;;;;;;5.34;100.00;99462.30;5093032;56;1161540;-64
2023/01/09 19:29:32;;;;;;;19.85;12.50;;;;;;;5.30;100.00;99466.08;5048512;56;1138875;-70
2023/01/09 19:34:37;;;;;;;22.40;13.30;;;;;;;5.27;100.00;99472.84;5108384;56;1140803;-72
2023/01/09 19:39:45;;;;;;;21.10;13.73;;;;;;;5.21;100.00;99485.91;5105887;56;1140678;-72
2023/01/09 19:44:51;;;;;;;24.10;12.10;;;;;;;5.16;100.00;99490.67;5066729;56;1140775;-69
2023/01/09 19:49:57;;;;;;;24.17;12.40;;;;;;;5.12;100.00;99497.55;5062747;56;1140859;-69
2023/01/09 19:55:04;;;;;;;21.07;12.20;;;;;;;5.07;100.00;99503.58;5067318;56;1141063;-66
2023/01/09 20:00:11;;;;;;;19.90;11.97;;;;;;;5.03;100.00;99513.45;5052960;56;1140963;-72
2023/01/09 20:05:21;;;;;;;25.43;12.03;;;;;;;4.98;100.00;99511.63;5099293;56;1140723;-68
2023/01/09 20:10:26;;;;;;;25.75;15.72;;;;;;;5.01;100.00;99506.64;4947309;57;1140794;-71
2023/01/09 20:15:32;;;;;;;21.03;13.00;;;;;;;5.08;100.00;99511.80;5084503;56;1141144;-70
2023/01/09 20:20:38;;;;;;;19.83;11.00;;;;;;;5.04;100.00;99496.76;5121541;56;1140777;-72
2023/01/09 20:25:45;;;;;;;42.57;21.20;;;;;;;5.04;100.00;99498.07;5100683;56;1179617;-70
2023/01/09 20:30:53;;;;;;;43.23;21.53;;;;;;;5.00;100.00;99512.83;5099533;56;1256413;-71
2023/01/09 20:36:03;;;;;;;39.47;20.73;;;;;;;4.89;100.00;99531.43;5098000;55;1254735;-72
2023/01/09 20:41:21;;;;;;;32.77;16.30;;;;;;;4.83;100.00;99559.86;5038125;56;1138716;-69
2023/01/09 20:46:21;;;;;;;34.27;16.73;;;;;;;4.71;100.00;99577.73;5099232;56;1141022;-69
2023/01/09 20:51:28;;;;;;;24.85;14.33;;;;;;;4.62;100.00;99580.95;5107116;56;1141567;-72
2023/01/09 20:56:35;;;;;;;21.55;11.70;;;;;;;4.52;100.00;99586.00;5140251;56;1244127;-69
2023/01/09 21:01:40;;;;;;;22.73;12.77;;;;;;;4.46;100.00;99593.78;5119748;56;1248617;-69
2023/01/09 21:06:46;;;;;;;29.73;13.77;;;;;;;4.42;100.00;99588.87;5113770;56;1255449;-70
2023/01/09 21:11:52;;;;;;;22.03;11.53;;;;;;;4.40;100.00;99593.37;5059937;56;1140805;-71
2023/01/09 21:16:58;;;;;;;21.37;12.70;;;;;;;4.38;100.00;99608.34;5083789;56;1256405;-70
2023/01/09 21:22:03;;;;;;;26.97;14.07;;;;;;;4.39;100.00;99616.56;5100767;56;1176323;-72
2023/01/09 21:27:10;;;;;;;182.13;58.97;;;;;;;4.38;100.00;99633.20;5121133;56;1141633;-69
2023/01/09 21:32:15;;;;;;;196.90;65.73;;;;;;;4.36;100.00;99641.16;5090786;56;1140819;-72
2023/01/09 21:37:22;;;;;;;193.33;72.77;;;;;;;4.39;100.00;99645.36;5041517;56;1140923;-72
2023/01/09 21:47:51;;;;;;;92.17;34.13;;;;;;;4.39;100.00;99655.83;5090356;56;1140811;-71
2023/01/09 21:52:57;;;;;;;66.60;25.20;;;;;;;4.26;100.00;99664.12;5069306;56;1140821;-66
2023/01/09 21:58:03;;;;;;;108.80;36.93;;;;;;;4.17;100.00;99665.53;5073121;56;1140959;-67
2023/01/09 22:03:11;;;;;;;180.73;68.07;;;;;;;4.19;100.00;99675.44;5089289;56;1142949;-66
2023/01/09 22:08:17;;;;;;;95.83;44.80;;;;;;;4.17;100.00;99691.70;5071676;56;1140821;-65
2023/01/09 22:13:23;;;;;;;111.13;49.97;;;;;;;4.14;100.00;99695.82;5071287;56;1254995;-69
2023/01/09 22:18:29;;;;;;;83.87;37.60;;;;;;;4.11;100.00;99703.89;5072731;56;1214717;-69
2023/01/09 22:23:35;;;;;;;56.75;21.45;;;;;;;4.05;100.00;99704.27;5091057;56;1138785;-66
2023/01/09 22:28:42;;;;;;;59.73;23.50;;;;;;;4.00;100.00;99708.95;5072303;56;1138771;-69
2023/01/09 22:33:52;;;;;;;54.73;22.33;;;;;;;3.99;100.00;99715.12;5072881;56;1140742;-65
2023/01/09 22:39:00;;;;;;;51.30;23.73;;;;;;;3.96;100.00;99728.42;5112628;56;1140932;-72
2023/01/09 22:44:06;;;;;;;76.63;33.23;;;;;;;3.82;100.00;99737.94;5062809;56;1138987;-70
2023/01/09 22:49:13;;;;;;;86.47;42.33;;;;;;;3.75;100.00;99743.20;5122117;56;1138811;-69
2023/01/09 22:54:21;;;;;;;45.96;22.18;;;;;;;3.73;100.00;99742.91;5141192;56;1138999;-71
2023/01/09 22:59:27;;;;;;;45.80;24.80;;;;;;;3.74;100.00;99750.67;5142372;56;1138907;-68
2023/01/09 23:04:33;;;;;;;52.10;23.03;;;;;;;3.81;100.00;99771.59;5122149;56;1140753;-68
2023/01/09 23:09:38;;;;;;;61.68;24.77;;;;;;;3.77;100.00;99775.33;5121948;56;1141168;-72
2023/01/09 23:14:44;;;;;;;70.77;24.60;;;;;;;3.87;100.00;99776.90;5141840;56;1141111;-69
2023/01/09 23:19:51;;;;;;;71.57;30.00;;;;;;;3.90;100.00;99774.09;5121803;56;1138886;-71
2023/01/09 23:24:57;;;;;;;73.73;31.57;;;;;;;3.94;100.00;99779.52;5066169;56;1138837;-69
2023/01/09 23:30:03;;;;;;;55.40;26.20;;;;;;;3.91;100.00;99782.78;5061121;57;1138845;-68
2023/01/09 23:35:09;;;;;;;47.07;24.50;;;;;;;3.94;100.00;99789.14;5043108;57;1138889;-69
2023/01/09 23:40:14;;;;;;;44.23;22.40;;;;;;;4.01;100.00;99798.28;5038951;57;1140764;-69
2023/01/09 23:45:21;;;;;;;56.07;28.13;;;;;;;4.10;100.00;99799.03;4962916;57;1141109;-65
2023/01/09 23:50:27;;;;;;;80.67;38.67;;;;;;;4.18;100.00;99795.45;4978155;58;1140973;-69